sensor_id;sensor_type;location;lat;lon;timestamp;P1;durP1;ratioP1;P2;durP2;ratioP2
53751;SDS011;41095;53.090;6.692;2022-09-30T00:01:31;5.20;;;4.03;;
53751;SDS011;41095;53.090;6.692;2022-09-30T00:03:58;4.80;;;3.92;;
53751;SDS011;41095;53.090;6.692;2022-09-30T00:06:25;4.88;;;4.05;;
53751;SDS011;41095;53.090;6.692;2022-09-30T00:08:52;4.65;;;3.55;;
53751;SDS011;41095;53.090;6.692;2022-09-30T00:11:19;7.70;;;3.95;;
53751;SDS011;41095;53.090;6.692;2022-09-30T00:13:47;4.82;;;4.32;;
53751;SDS011;41095;53.090;6.692;2022-09-30T00:16:15;3.47;;;3.17;;
53751;SDS011;41095;53.090;6.692;2022-09-30T00:18:42;4.15;;;3.75;;
53751;SDS011;41095;53.090;6.692;2022-09-30T00:21:08;3.60;;;3.30;;
53751;SDS011;41095;53.090;6.692;2022-09-30T00:23:36;4.30;;;3.58;;
53751;SDS011;41095;53.090;6.692;2022-09-30T00:26:04;5.40;;;3.50;;
53751;SDS011;41095;53.090;6.692;2022-09-30T00:28:31;3.95;;;3.53;;
53751;SDS011;41095;53.090;6.692;2022-09-30T00:30:58;4.63;;;3.72;;
53751;SDS011;41095;53.090;6.692;2022-09-30T00:33:25;4.25;;;3.28;;
53751;SDS011;41095;53.090;6.692;2022-09-30T00:35:51;3.80;;;3.40;;
53751;SDS011;41095;53.090;6.692;2022-09-30T00:38:17;3.30;;;2.97;;
53751;SDS011;41095;53.090;6.692;2022-09-30T00:40:42;3.92;;;3.63;;
53751;SDS011;41095;53.090;6.692;2022-09-30T00:43:12;4.40;;;3.58;;
53751;SDS011;41095;53.090;6.692;2022-09-30T00:45:41;3.88;;;3.08;;
53751;SDS011;41095;53.090;6.692;2022-09-30T00:48:15;3.45;;;2.72;;
53751;SDS011;41095;53.090;6.692;2022-09-30T00:50:48;2.28;;;2.08;;
53751;SDS011;41095;53.090;6.692;2022-09-30T00:53:29;3.60;;;3.17;;
53751;SDS011;41095;53.090;6.692;2022-09-30T00:56:08;2.83;;;2.55;;
53751;SDS011;41095;53.090;6.692;2022-09-30T00:58:43;3.30;;;3.00;;
53751;SDS011;41095;53.090;6.692;2022-09-30T01:01:12;2.90;;;2.70;;
53751;SDS011;41095;53.090;6.692;2022-09-30T01:04:00;3.33;;;3.03;;
53751;SDS011;41095;53.090;6.692;2022-09-30T01:06:26;2.67;;;2.47;;
53751;SDS011;41095;53.090;6.692;2022-09-30T01:08:51;5.05;;;3.00;;
53751;SDS011;41095;53.090;6.692;2022-09-30T01:11:19;3.92;;;3.30;;
53751;SDS011;41095;53.090;6.692;2022-09-30T01:13:46;4.38;;;3.00;;
53751;SDS011;41095;53.090;6.692;2022-09-30T01:19:01;3.13;;;2.63;;
53751;SDS011;41095;53.090;6.692;2022-09-30T01:37:39;3.55;;;3.05;;
53751;SDS011;41095;53.090;6.692;2022-09-30T01:45:48;6.40;;;3.30;;
53751;SDS011;41095;53.090;6.692;2022-09-30T01:51:11;4.78;;;4.35;;
53751;SDS011;41095;53.090;6.692;2022-09-30T01:54:02;4.82;;;4.22;;
53751;SDS011;41095;53.090;6.692;2022-09-30T01:56:56;4.13;;;3.50;;
53751;SDS011;41095;53.090;6.692;2022-09-30T01:59:36;4.50;;;4.03;;
53751;SDS011;41095;53.090;6.692;2022-09-30T02:02:11;4.43;;;3.60;;
53751;SDS011;41095;53.090;6.692;2022-09-30T02:04:51;4.15;;;3.67;;
53751;SDS011;41095;53.090;6.692;2022-09-30T02:07:37;3.78;;;3.47;;
53751;SDS011;41095;53.090;6.692;2022-09-30T02:10:15;3.72;;;3.42;;
53751;SDS011;41095;53.090;6.692;2022-09-30T02:12:52;3.53;;;3.22;;
53751;SDS011;41095;53.090;6.692;2022-09-30T02:15:23;4.40;;;3.33;;
53751;SDS011;41095;53.090;6.692;2022-09-30T02:17:59;3.40;;;2.80;;
53751;SDS011;41095;53.090;6.692;2022-09-30T02:20:32;3.72;;;3.30;;
53751;SDS011;41095;53.090;6.692;2022-09-30T02:23:05;3.45;;;3.15;;
53751;SDS011;41095;53.090;6.692;2022-09-30T02:25:47;3.45;;;3.15;;
53751;SDS011;41095;53.090;6.692;2022-09-30T02:28:24;5.43;;;3.67;;
53751;SDS011;41095;53.090;6.692;2022-09-30T02:30:54;3.70;;;3.40;;
53751;SDS011;41095;53.090;6.692;2022-09-30T02:33:26;4.30;;;3.55;;
53751;SDS011;41095;53.090;6.692;2022-09-30T02:35:56;4.47;;;3.88;;
53751;SDS011;41095;53.090;6.692;2022-09-30T02:38:31;4.50;;;4.10;;
53751;SDS011;41095;53.090;6.692;2022-09-30T02:41:14;5.07;;;4.20;;
53751;SDS011;41095;53.090;6.692;2022-09-30T02:43:46;4.93;;;4.05;;
53751;SDS011;41095;53.090;6.692;2022-09-30T02:48:47;4.72;;;4.13;;
53751;SDS011;41095;53.090;6.692;2022-09-30T02:51:15;3.92;;;3.58;;
53751;SDS011;41095;53.090;6.692;2022-09-30T02:53:51;5.50;;;4.35;;
53751;SDS011;41095;53.090;6.692;2022-09-30T02:59:24;4.53;;;3.92;;
53751;SDS011;41095;53.090;6.692;2022-09-30T03:01:50;4.72;;;3.92;;
53751;SDS011;41095;53.090;6.692;2022-09-30T03:04:18;4.90;;;4.40;;
53751;SDS011;41095;53.090;6.692;2022-09-30T03:06:47;6.13;;;3.45;;
53751;SDS011;41095;53.090;6.692;2022-09-30T03:09:13;4.57;;;3.90;;
53751;SDS011;41095;53.090;6.692;2022-09-30T03:11:39;4.55;;;4.10;;
53751;SDS011;41095;53.090;6.692;2022-09-30T03:17:14;4.45;;;4.03;;
53751;SDS011;41095;53.090;6.692;2022-09-30T03:25:59;11.38;;;5.07;;
53751;SDS011;41095;53.090;6.692;2022-09-30T03:31:21;3.88;;;3.58;;
53751;SDS011;41095;53.090;6.692;2022-09-30T03:36:51;3.70;;;3.25;;
53751;SDS011;41095;53.090;6.692;2022-09-30T03:39:36;58.55;;;10.95;;
53751;SDS011;41095;53.090;6.692;2022-09-30T03:45:06;44.00;;;7.13;;
53751;SDS011;41095;53.090;6.692;2022-09-30T03:47:50;49.67;;;7.70;;
53751;SDS011;41095;53.090;6.692;2022-09-30T03:50:20;17.20;;;5.10;;
53751;SDS011;41095;53.090;6.692;2022-09-30T03:52:48;22.95;;;5.70;;
53751;SDS011;41095;53.090;6.692;2022-09-30T03:55:15;31.77;;;5.60;;
53751;SDS011;41095;53.090;6.692;2022-09-30T03:57:41;31.60;;;5.97;;
53751;SDS011;41095;53.090;6.692;2022-09-30T04:00:09;8.40;;;3.45;;
53751;SDS011;41095;53.090;6.692;2022-09-30T04:02:36;8.23;;;4.30;;
53751;SDS011;41095;53.090;6.692;2022-09-30T04:05:03;6.35;;;3.25;;
53751;SDS011;41095;53.090;6.692;2022-09-30T04:07:30;6.70;;;4.10;;
53751;SDS011;41095;53.090;6.692;2022-09-30T04:09:56;6.70;;;3.42;;
53751;SDS011;41095;53.090;6.692;2022-09-30T04:12:22;4.75;;;3.08;;
53751;SDS011;41095;53.090;6.692;2022-09-30T04:14:48;6.20;;;3.55;;
53751;SDS011;41095;53.090;6.692;2022-09-30T04:17:13;2.67;;;2.42;;
53751;SDS011;41095;53.090;6.692;2022-09-30T04:19:39;3.22;;;2.97;;
53751;SDS011;41095;53.090;6.692;2022-09-30T04:22:05;3.80;;;3.05;;
53751;SDS011;41095;53.090;6.692;2022-09-30T04:24:32;2.97;;;2.67;;
53751;SDS011;41095;53.090;6.692;2022-09-30T04:26:58;6.28;;;3.38;;
53751;SDS011;41095;53.090;6.692;2022-09-30T04:29:24;3.40;;;3.13;;
53751;SDS011;41095;53.090;6.692;2022-09-30T04:31:50;3.13;;;2.92;;
53751;SDS011;41095;53.090;6.692;2022-09-30T04:34:15;3.40;;;2.38;;
53751;SDS011;41095;53.090;6.692;2022-09-30T04:36:41;2.92;;;2.72;;
53751;SDS011;41095;53.090;6.692;2022-09-30T04:39:07;3.67;;;2.63;;
53751;SDS011;41095;53.090;6.692;2022-09-30T04:41:33;3.28;;;2.97;;
53751;SDS011;41095;53.090;6.692;2022-09-30T04:43:59;3.40;;;3.10;;
53751;SDS011;41095;53.090;6.692;2022-09-30T04:46:30;4.28;;;3.33;;
53751;SDS011;41095;53.090;6.692;2022-09-30T04:48:56;4.35;;;2.72;;
53751;SDS011;41095;53.090;6.692;2022-09-30T04:51:22;3.92;;;3.63;;
53751;SDS011;41095;53.090;6.692;2022-09-30T04:53:47;5.43;;;3.40;;
53751;SDS011;41095;53.090;6.692;2022-09-30T04:56:14;5.75;;;3.35;;
53751;SDS011;41095;53.090;6.692;2022-09-30T04:58:43;3.97;;;3.53;;
53751;SDS011;41095;53.090;6.692;2022-09-30T05:01:10;9.10;;;4.18;;
53751;SDS011;41095;53.090;6.692;2022-09-30T05:03:38;3.88;;;3.58;;
53751;SDS011;41095;53.090;6.692;2022-09-30T05:06:04;4.47;;;4.07;;
53751;SDS011;41095;53.090;6.692;2022-09-30T05:08:30;3.90;;;3.60;;
53751;SDS011;41095;53.090;6.692;2022-09-30T05:11:04;4.20;;;3.55;;
53751;SDS011;41095;53.090;6.692;2022-09-30T05:13:35;4.32;;;3.92;;
53751;SDS011;41095;53.090;6.692;2022-09-30T05:16:03;5.15;;;4.65;;
53751;SDS011;41095;53.090;6.692;2022-09-30T05:18:29;5.07;;;4.03;;
53751;SDS011;41095;53.090;6.692;2022-09-30T05:20:57;6.05;;;4.07;;
53751;SDS011;41095;53.090;6.692;2022-09-30T05:23:23;3.53;;;3.20;;
53751;SDS011;41095;53.090;6.692;2022-09-30T05:25:50;4.15;;;3.75;;
53751;SDS011;41095;53.090;6.692;2022-09-30T05:28:16;8.13;;;4.32;;
53751;SDS011;41095;53.090;6.692;2022-09-30T05:30:43;4.78;;;3.45;;
53751;SDS011;41095;53.090;6.692;2022-09-30T05:33:09;8.07;;;3.50;;
53751;SDS011;41095;53.090;6.692;2022-09-30T05:35:37;27.65;;;5.88;;
53751;SDS011;41095;53.090;6.692;2022-09-30T05:38:04;11.60;;;3.78;;
53751;SDS011;41095;53.090;6.692;2022-09-30T05:40:30;39.15;;;6.70;;
53751;SDS011;41095;53.090;6.692;2022-09-30T05:42:57;24.00;;;4.47;;
53751;SDS011;41095;53.090;6.692;2022-09-30T05:45:23;12.43;;;3.33;;
53751;SDS011;41095;53.090;6.692;2022-09-30T05:47:50;12.68;;;3.30;;
53751;SDS011;41095;53.090;6.692;2022-09-30T05:50:16;6.47;;;2.88;;
53751;SDS011;41095;53.090;6.692;2022-09-30T05:52:42;4.13;;;3.00;;
53751;SDS011;41095;53.090;6.692;2022-09-30T05:55:08;12.25;;;3.88;;
53751;SDS011;41095;53.090;6.692;2022-09-30T05:57:33;8.93;;;3.85;;
53751;SDS011;41095;53.090;6.692;2022-09-30T06:00:00;6.28;;;3.72;;
53751;SDS011;41095;53.090;6.692;2022-09-30T06:02:26;4.75;;;3.17;;
53751;SDS011;41095;53.090;6.692;2022-09-30T06:04:51;2.70;;;2.47;;
53751;SDS011;41095;53.090;6.692;2022-09-30T06:07:17;6.50;;;3.03;;
53751;SDS011;41095;53.090;6.692;2022-09-30T06:09:43;5.70;;;3.40;;
53751;SDS011;41095;53.090;6.692;2022-09-30T06:12:10;3.70;;;3.20;;
53751;SDS011;41095;53.090;6.692;2022-09-30T06:14:35;3.00;;;2.75;;
53751;SDS011;41095;53.090;6.692;2022-09-30T06:17:01;4.03;;;3.63;;
53751;SDS011;41095;53.090;6.692;2022-09-30T06:19:27;7.75;;;3.90;;
53751;SDS011;41095;53.090;6.692;2022-09-30T06:21:54;10.70;;;3.85;;
53751;SDS011;41095;53.090;6.692;2022-09-30T06:24:21;10.45;;;4.60;;
53751;SDS011;41095;53.090;6.692;2022-09-30T06:26:46;4.25;;;3.90;;
53751;SDS011;41095;53.090;6.692;2022-09-30T06:29:12;4.70;;;4.18;;
53751;SDS011;41095;53.090;6.692;2022-09-30T06:31:38;4.00;;;3.63;;
53751;SDS011;41095;53.090;6.692;2022-09-30T06:34:04;3.78;;;3.47;;
53751;SDS011;41095;53.090;6.692;2022-09-30T06:36:30;4.05;;;3.65;;
53751;SDS011;41095;53.090;6.692;2022-09-30T06:38:58;5.68;;;4.22;;
53751;SDS011;41095;53.090;6.692;2022-09-30T06:41:25;8.10;;;4.47;;
53751;SDS011;41095;53.090;6.692;2022-09-30T06:43:51;13.40;;;4.63;;
53751;SDS011;41095;53.090;6.692;2022-09-30T06:46:19;7.13;;;4.30;;
53751;SDS011;41095;53.090;6.692;2022-09-30T06:48:54;5.35;;;4.10;;
53751;SDS011;41095;53.090;6.692;2022-09-30T06:51:22;12.90;;;5.57;;
53751;SDS011;41095;53.090;6.692;2022-09-30T06:53:50;5.63;;;4.40;;
53751;SDS011;41095;53.090;6.692;2022-09-30T06:56:18;5.70;;;4.63;;
53751;SDS011;41095;53.090;6.692;2022-09-30T06:58:44;5.07;;;4.05;;
53751;SDS011;41095;53.090;6.692;2022-09-30T07:01:10;6.05;;;4.60;;
53751;SDS011;41095;53.090;6.692;2022-09-30T07:03:40;6.15;;;5.57;;
53751;SDS011;41095;53.090;6.692;2022-09-30T07:06:08;5.97;;;5.38;;
53751;SDS011;41095;53.090;6.692;2022-09-30T07:08:36;7.70;;;5.72;;
53751;SDS011;41095;53.090;6.692;2022-09-30T07:11:10;6.18;;;5.68;;
53751;SDS011;41095;53.090;6.692;2022-09-30T07:13:42;5.38;;;4.88;;
53751;SDS011;41095;53.090;6.692;2022-09-30T07:16:10;5.53;;;5.00;;
53751;SDS011;41095;53.090;6.692;2022-09-30T07:18:38;8.57;;;5.32;;
53751;SDS011;41095;53.090;6.692;2022-09-30T07:21:06;5.80;;;4.78;;
53751;SDS011;41095;53.090;6.692;2022-09-30T07:23:33;6.00;;;5.43;;
53751;SDS011;41095;53.090;6.692;2022-09-30T07:25:59;8.05;;;6.18;;
53751;SDS011;41095;53.090;6.692;2022-09-30T07:28:29;13.20;;;7.10;;
53751;SDS011;41095;53.090;6.692;2022-09-30T07:30:58;6.85;;;5.90;;
53751;SDS011;41095;53.090;6.692;2022-09-30T07:33:26;7.05;;;6.40;;
53751;SDS011;41095;53.090;6.692;2022-09-30T07:35:55;7.93;;;7.03;;
53751;SDS011;41095;53.090;6.692;2022-09-30T07:38:22;8.48;;;6.75;;
53751;SDS011;41095;53.090;6.692;2022-09-30T07:40:50;7.82;;;7.03;;
53751;SDS011;41095;53.090;6.692;2022-09-30T07:43:17;8.52;;;6.63;;
53751;SDS011;41095;53.090;6.692;2022-09-30T07:45:44;7.10;;;6.32;;
53751;SDS011;41095;53.090;6.692;2022-09-30T07:48:10;7.45;;;6.75;;
53751;SDS011;41095;53.090;6.692;2022-09-30T07:50:55;12.70;;;7.22;;
53751;SDS011;41095;53.090;6.692;2022-09-30T07:53:21;11.10;;;7.32;;
53751;SDS011;41095;53.090;6.692;2022-09-30T07:55:47;8.57;;;6.07;;
53751;SDS011;41095;53.090;6.692;2022-09-30T07:58:12;7.28;;;6.53;;
53751;SDS011;41095;53.090;6.692;2022-09-30T08:00:38;6.43;;;5.82;;
53751;SDS011;41095;53.090;6.692;2022-09-30T08:03:04;6.07;;;5.55;;
53751;SDS011;41095;53.090;6.692;2022-09-30T08:05:29;5.25;;;4.75;;
53751;SDS011;41095;53.090;6.692;2022-09-30T08:07:55;5.68;;;4.78;;
53751;SDS011;41095;53.090;6.692;2022-09-30T08:10:21;4.60;;;4.20;;
53751;SDS011;41095;53.090;6.692;2022-09-30T08:12:46;4.68;;;4.13;;
53751;SDS011;41095;53.090;6.692;2022-09-30T08:15:12;4.93;;;4.43;;
53751;SDS011;41095;53.090;6.692;2022-09-30T08:17:38;6.82;;;4.82;;
53751;SDS011;41095;53.090;6.692;2022-09-30T08:20:03;4.43;;;3.92;;
53751;SDS011;41095;53.090;6.692;2022-09-30T08:22:29;4.82;;;4.25;;
53751;SDS011;41095;53.090;6.692;2022-09-30T08:24:55;6.03;;;5.13;;
53751;SDS011;41095;53.090;6.692;2022-09-30T08:27:21;5.35;;;4.85;;
53751;SDS011;41095;53.090;6.692;2022-09-30T08:29:46;6.07;;;4.93;;
53751;SDS011;41095;53.090;6.692;2022-09-30T08:32:12;5.90;;;4.68;;
53751;SDS011;41095;53.090;6.692;2022-09-30T08:34:38;4.85;;;4.43;;
53751;SDS011;41095;53.090;6.692;2022-09-30T08:37:03;6.28;;;4.43;;
53751;SDS011;41095;53.090;6.692;2022-09-30T08:39:29;5.32;;;4.80;;
53751;SDS011;41095;53.090;6.692;2022-09-30T08:44:45;4.60;;;4.20;;
53751;SDS011;41095;53.090;6.692;2022-09-30T08:47:24;7.60;;;5.07;;
53751;SDS011;41095;53.090;6.692;2022-09-30T08:50:02;4.88;;;4.35;;
53751;SDS011;41095;53.090;6.692;2022-09-30T08:52:44;5.90;;;5.07;;
53751;SDS011;41095;53.090;6.692;2022-09-30T08:55:15;7.60;;;6.13;;
53751;SDS011;41095;53.090;6.692;2022-09-30T08:57:48;7.03;;;5.70;;
53751;SDS011;41095;53.090;6.692;2022-09-30T09:00:16;6.07;;;5.07;;
53751;SDS011;41095;53.090;6.692;2022-09-30T09:02:47;6.68;;;5.60;;
53751;SDS011;41095;53.090;6.692;2022-09-30T09:05:37;5.28;;;4.20;;
53751;SDS011;41095;53.090;6.692;2022-09-30T09:08:28;6.10;;;4.30;;
53751;SDS011;41095;53.090;6.692;2022-09-30T09:11:30;5.05;;;4.18;;
53751;SDS011;41095;53.090;6.692;2022-09-30T09:20:12;4.80;;;4.40;;
53751;SDS011;41095;53.090;6.692;2022-09-30T09:22:38;5.00;;;4.03;;
53751;SDS011;41095;53.090;6.692;2022-09-30T09:25:05;5.15;;;4.13;;
53751;SDS011;41095;53.090;6.692;2022-09-30T09:30:13;4.95;;;4.00;;
53751;SDS011;41095;53.090;6.692;2022-09-30T09:32:42;3.88;;;3.35;;
53751;SDS011;41095;53.090;6.692;2022-09-30T09:35:15;4.10;;;3.67;;
53751;SDS011;41095;53.090;6.692;2022-09-30T09:37:48;4.45;;;3.53;;
53751;SDS011;41095;53.090;6.692;2022-09-30T09:46:28;5.28;;;3.70;;
53751;SDS011;41095;53.090;6.692;2022-09-30T09:49:18;4.32;;;3.92;;
53751;SDS011;41095;53.090;6.692;2022-09-30T09:54:48;6.45;;;4.25;;
53751;SDS011;41095;53.090;6.692;2022-09-30T09:57:17;4.30;;;3.90;;
53751;SDS011;41095;53.090;6.692;2022-09-30T10:00:05;5.65;;;4.38;;
53751;SDS011;41095;53.090;6.692;2022-09-30T10:03:04;4.43;;;3.90;;
53751;SDS011;41095;53.090;6.692;2022-09-30T10:05:36;5.03;;;4.53;;
53751;SDS011;41095;53.090;6.692;2022-09-30T10:08:24;6.70;;;5.10;;
53751;SDS011;41095;53.090;6.692;2022-09-30T10:11:06;5.90;;;5.30;;
53751;SDS011;41095;53.090;6.692;2022-09-30T10:13:43;6.67;;;5.60;;
53751;SDS011;41095;53.090;6.692;2022-09-30T10:19:16;6.32;;;5.40;;
53751;SDS011;41095;53.090;6.692;2022-09-30T10:21:47;5.68;;;4.68;;
53751;SDS011;41095;53.090;6.692;2022-09-30T10:24:25;5.80;;;4.50;;
53751;SDS011;41095;53.090;6.692;2022-09-30T10:26:53;7.00;;;4.85;;
53751;SDS011;41095;53.090;6.692;2022-09-30T10:31:53;3.80;;;3.35;;
53751;SDS011;41095;53.090;6.692;2022-09-30T10:34:27;3.88;;;3.58;;
53751;SDS011;41095;53.090;6.692;2022-09-30T10:36:56;4.57;;;3.42;;
53751;SDS011;41095;53.090;6.692;2022-09-30T10:39:33;5.50;;;3.60;;
53751;SDS011;41095;53.090;6.692;2022-09-30T10:42:15;3.22;;;2.90;;
53751;SDS011;41095;53.090;6.692;2022-09-30T10:44:43;2.47;;;2.28;;
53751;SDS011;41095;53.090;6.692;2022-09-30T10:47:18;3.17;;;2.72;;
53751;SDS011;41095;53.090;6.692;2022-09-30T10:52:18;1.83;;;1.70;;
53751;SDS011;41095;53.090;6.692;2022-09-30T10:57:36;1.85;;;1.75;;
53751;SDS011;41095;53.090;6.692;2022-09-30T11:00:06;2.60;;;1.52;;
53751;SDS011;41095;53.090;6.692;2022-09-30T11:05:42;1.50;;;1.40;;
53751;SDS011;41095;53.090;6.692;2022-09-30T11:08:13;3.35;;;1.70;;
53751;SDS011;41095;53.090;6.692;2022-09-30T11:18:42;1.70;;;1.35;;
53751;SDS011;41095;53.090;6.692;2022-09-30T11:21:39;3.03;;;1.60;;
53751;SDS011;41095;53.090;6.692;2022-09-30T11:54:15;3.75;;;2.58;;
53751;SDS011;41095;53.090;6.692;2022-09-30T11:59:27;2.75;;;1.85;;
53751;SDS011;41095;53.090;6.692;2022-09-30T12:01:58;3.20;;;2.08;;
53751;SDS011;41095;53.090;6.692;2022-09-30T12:04:34;2.22;;;1.63;;
53751;SDS011;41095;53.090;6.692;2022-09-30T12:09:58;1.60;;;1.50;;
53751;SDS011;41095;53.090;6.692;2022-09-30T12:12:29;2.25;;;2.05;;
53751;SDS011;41095;53.090;6.692;2022-09-30T12:15:04;2.28;;;1.75;;
53751;SDS011;41095;53.090;6.692;2022-09-30T12:17:52;2.80;;;2.05;;
53751;SDS011;41095;53.090;6.692;2022-09-30T12:20:38;2.33;;;1.77;;
53751;SDS011;41095;53.090;6.692;2022-09-30T12:26:05;1.58;;;1.48;;
53751;SDS011;41095;53.090;6.692;2022-09-30T12:28:48;1.70;;;1.60;;
53751;SDS011;41095;53.090;6.692;2022-09-30T12:34:52;1.90;;;1.67;;
53751;SDS011;41095;53.090;6.692;2022-09-30T12:48:37;3.10;;;2.17;;
53751;SDS011;41095;53.090;6.692;2022-09-30T12:51:05;2.97;;;2.05;;
53751;SDS011;41095;53.090;6.692;2022-09-30T12:53:36;2.60;;;2.00;;
53751;SDS011;41095;53.090;6.692;2022-09-30T12:56:05;2.28;;;2.08;;
53751;SDS011;41095;53.090;6.692;2022-09-30T12:58:40;2.78;;;2.00;;
53751;SDS011;41095;53.090;6.692;2022-09-30T13:01:23;2.55;;;1.77;;
53751;SDS011;41095;53.090;6.692;2022-09-30T13:11:41;5.20;;;3.22;;
53751;SDS011;41095;53.090;6.692;2022-09-30T13:19:36;3.67;;;3.35;;
53751;SDS011;41095;53.090;6.692;2022-09-30T13:27:33;3.90;;;3.50;;
53751;SDS011;41095;53.090;6.692;2022-09-30T13:30:27;5.55;;;3.75;;
53751;SDS011;41095;53.090;6.692;2022-09-30T13:38:19;4.55;;;3.75;;
53751;SDS011;41095;53.090;6.692;2022-09-30T13:41:06;6.10;;;4.57;;
53751;SDS011;41095;53.090;6.692;2022-09-30T13:43:56;5.07;;;4.55;;
53751;SDS011;41095;53.090;6.692;2022-09-30T13:47:13;8.52;;;4.70;;
53751;SDS011;41095;53.090;6.692;2022-09-30T13:49:22;4.53;;;4.07;;
53751;SDS011;41095;53.090;6.692;2022-09-30T13:52:07;4.97;;;4.05;;
53751;SDS011;41095;53.090;6.692;2022-09-30T13:54:40;6.88;;;4.93;;
53751;SDS011;41095;53.090;6.692;2022-09-30T13:57:14;5.93;;;5.10;;
53751;SDS011;41095;53.090;6.692;2022-09-30T14:00:02;6.13;;;5.53;;
53751;SDS011;41095;53.090;6.692;2022-09-30T14:11:00;9.57;;;6.38;;
53751;SDS011;41095;53.090;6.692;2022-09-30T14:34:54;6.90;;;5.32;;
53751;SDS011;41095;53.090;6.692;2022-09-30T14:37:24;7.80;;;6.22;;
53751;SDS011;41095;53.090;6.692;2022-09-30T14:39:55;7.53;;;6.53;;
53751;SDS011;41095;53.090;6.692;2022-09-30T14:42:23;9.73;;;6.93;;
53751;SDS011;41095;53.090;6.692;2022-09-30T14:44:55;7.50;;;6.47;;
53751;SDS011;41095;53.090;6.692;2022-09-30T14:47:38;6.65;;;5.13;;
53751;SDS011;41095;53.090;6.692;2022-09-30T14:50:09;7.47;;;5.93;;
53751;SDS011;41095;53.090;6.692;2022-09-30T14:52:44;5.95;;;5.35;;
53751;SDS011;41095;53.090;6.692;2022-09-30T14:55:22;7.10;;;5.78;;
53751;SDS011;41095;53.090;6.692;2022-09-30T14:57:50;6.00;;;4.60;;
53751;SDS011;41095;53.090;6.692;2022-09-30T15:00:26;4.97;;;4.53;;
53751;SDS011;41095;53.090;6.692;2022-09-30T15:02:54;7.88;;;5.90;;
53751;SDS011;41095;53.090;6.692;2022-09-30T15:05:20;6.22;;;5.63;;
53751;SDS011;41095;53.090;6.692;2022-09-30T15:07:45;8.45;;;6.85;;
53751;SDS011;41095;53.090;6.692;2022-09-30T15:10:18;7.75;;;6.30;;
53751;SDS011;41095;53.090;6.692;2022-09-30T15:12:47;9.73;;;7.00;;
53751;SDS011;41095;53.090;6.692;2022-09-30T15:15:34;7.10;;;6.28;;
53751;SDS011;41095;53.090;6.692;2022-09-30T15:20:57;6.43;;;5.53;;
53751;SDS011;41095;53.090;6.692;2022-09-30T15:23:41;5.45;;;4.95;;
53751;SDS011;41095;53.090;6.692;2022-09-30T15:26:10;6.00;;;4.45;;
53751;SDS011;41095;53.090;6.692;2022-09-30T15:28:37;6.15;;;4.80;;
53751;SDS011;41095;53.090;6.692;2022-09-30T15:31:03;4.20;;;3.80;;
53751;SDS011;41095;53.090;6.692;2022-09-30T15:33:32;5.00;;;4.43;;
53751;SDS011;41095;53.090;6.692;2022-09-30T15:36:17;6.93;;;5.50;;
53751;SDS011;41095;53.090;6.692;2022-09-30T15:38:49;8.52;;;7.60;;
53751;SDS011;41095;53.090;6.692;2022-09-30T15:41:16;8.50;;;7.45;;
53751;SDS011;41095;53.090;6.692;2022-09-30T15:43:49;7.97;;;7.22;;
53751;SDS011;41095;53.090;6.692;2022-09-30T15:46:23;9.13;;;8.20;;
53751;SDS011;41095;53.090;6.692;2022-09-30T15:49:28;9.02;;;8.13;;
53751;SDS011;41095;53.090;6.692;2022-09-30T15:52:28;10.43;;;8.48;;
53751;SDS011;41095;53.090;6.692;2022-09-30T15:55:00;10.68;;;8.35;;
53751;SDS011;41095;53.090;6.692;2022-09-30T15:57:47;9.48;;;7.95;;
53751;SDS011;41095;53.090;6.692;2022-09-30T16:03:07;9.90;;;8.38;;
53751;SDS011;41095;53.090;6.692;2022-09-30T16:05:48;11.38;;;8.65;;
53751;SDS011;41095;53.090;6.692;2022-09-30T16:08:57;8.93;;;7.90;;
53751;SDS011;41095;53.090;6.692;2022-09-30T16:11:06;9.70;;;8.20;;
53751;SDS011;41095;53.090;6.692;2022-09-30T16:13:32;9.05;;;7.35;;
53751;SDS011;41095;53.090;6.692;2022-09-30T16:16:02;8.85;;;7.60;;
53751;SDS011;41095;53.090;6.692;2022-09-30T16:18:30;7.70;;;7.00;;
53751;SDS011;41095;53.090;6.692;2022-09-30T16:21:02;8.77;;;7.45;;
53751;SDS011;41095;53.090;6.692;2022-09-30T16:23:30;7.53;;;6.60;;
53751;SDS011;41095;53.090;6.692;2022-09-30T16:26:21;9.35;;;6.47;;
53751;SDS011;41095;53.090;6.692;2022-09-30T16:28:52;7.38;;;6.00;;
53751;SDS011;41095;53.090;6.692;2022-09-30T16:31:20;8.38;;;7.00;;
53751;SDS011;41095;53.090;6.692;2022-09-30T16:33:49;7.53;;;6.70;;
53751;SDS011;41095;53.090;6.692;2022-09-30T16:36:14;8.07;;;7.03;;
53751;SDS011;41095;53.090;6.692;2022-09-30T16:38:40;7.90;;;7.10;;
53751;SDS011;41095;53.090;6.692;2022-09-30T16:41:10;8.88;;;6.85;;
53751;SDS011;41095;53.090;6.692;2022-09-30T16:43:37;9.50;;;7.15;;
53751;SDS011;41095;53.090;6.692;2022-09-30T16:46:03;9.00;;;7.05;;
53751;SDS011;41095;53.090;6.692;2022-09-30T16:48:29;8.65;;;7.05;;
53751;SDS011;41095;53.090;6.692;2022-09-30T16:51:01;8.00;;;6.40;;
53751;SDS011;41095;53.090;6.692;2022-09-30T16:53:38;8.52;;;5.78;;
53751;SDS011;41095;53.090;6.692;2022-09-30T16:56:04;7.55;;;6.45;;
53751;SDS011;41095;53.090;6.692;2022-09-30T16:58:30;7.93;;;7.13;;
53751;SDS011;41095;53.090;6.692;2022-09-30T17:00:56;7.47;;;6.78;;
53751;SDS011;41095;53.090;6.692;2022-09-30T17:03:24;10.50;;;7.22;;
53751;SDS011;41095;53.090;6.692;2022-09-30T17:05:50;7.45;;;6.75;;
53751;SDS011;41095;53.090;6.692;2022-09-30T17:08:17;8.10;;;6.13;;
53751;SDS011;41095;53.090;6.692;2022-09-30T17:10:45;6.68;;;6.07;;
53751;SDS011;41095;53.090;6.692;2022-09-30T17:13:14;6.90;;;6.30;;
53751;SDS011;41095;53.090;6.692;2022-09-30T17:15:40;8.07;;;6.25;;
53751;SDS011;41095;53.090;6.692;2022-09-30T17:18:07;8.65;;;7.65;;
53751;SDS011;41095;53.090;6.692;2022-09-30T17:20:34;13.85;;;7.10;;
53751;SDS011;41095;53.090;6.692;2022-09-30T17:23:00;9.93;;;7.10;;
53751;SDS011;41095;53.090;6.692;2022-09-30T17:25:26;7.28;;;6.57;;
53751;SDS011;41095;53.090;6.692;2022-09-30T17:27:52;6.70;;;5.07;;
53751;SDS011;41095;53.090;6.692;2022-09-30T17:30:18;6.25;;;5.68;;
53751;SDS011;41095;53.090;6.692;2022-09-30T17:32:44;6.07;;;4.82;;
53751;SDS011;41095;53.090;6.692;2022-09-30T17:35:10;6.72;;;4.60;;
53751;SDS011;41095;53.090;6.692;2022-09-30T17:37:36;7.18;;;5.78;;
53751;SDS011;41095;53.090;6.692;2022-09-30T17:40:04;6.53;;;5.25;;
53751;SDS011;41095;53.090;6.692;2022-09-30T17:42:50;8.43;;;5.70;;
53751;SDS011;41095;53.090;6.692;2022-09-30T17:45:35;5.28;;;4.82;;
53751;SDS011;41095;53.090;6.692;2022-09-30T17:48:03;5.82;;;5.22;;
53751;SDS011;41095;53.090;6.692;2022-09-30T17:50:32;6.38;;;5.00;;
53751;SDS011;41095;53.090;6.692;2022-09-30T17:52:58;5.30;;;4.70;;
53751;SDS011;41095;53.090;6.692;2022-09-30T17:55:26;5.15;;;4.65;;
53751;SDS011;41095;53.090;6.692;2022-09-30T17:57:53;5.13;;;4.72;;
53751;SDS011;41095;53.090;6.692;2022-09-30T18:00:20;4.55;;;4.10;;
53751;SDS011;41095;53.090;6.692;2022-09-30T18:02:46;4.35;;;3.95;;
53751;SDS011;41095;53.090;6.692;2022-09-30T18:05:12;4.65;;;4.07;;
53751;SDS011;41095;53.090;6.692;2022-09-30T18:07:39;5.07;;;3.97;;
53751;SDS011;41095;53.090;6.692;2022-09-30T18:10:05;6.05;;;3.97;;
53751;SDS011;41095;53.090;6.692;2022-09-30T18:12:32;3.80;;;3.28;;
53751;SDS011;41095;53.090;6.692;2022-09-30T18:14:59;3.92;;;3.53;;
53751;SDS011;41095;53.090;6.692;2022-09-30T18:17:25;3.50;;;3.20;;
53751;SDS011;41095;53.090;6.692;2022-09-30T18:19:51;3.90;;;3.22;;
53751;SDS011;41095;53.090;6.692;2022-09-30T18:22:17;4.78;;;4.00;;
53751;SDS011;41095;53.090;6.692;2022-09-30T18:24:43;4.43;;;4.03;;
53751;SDS011;41095;53.090;6.692;2022-09-30T18:27:27;5.32;;;3.80;;
53751;SDS011;41095;53.090;6.692;2022-09-30T18:29:58;4.38;;;3.55;;
53751;SDS011;41095;53.090;6.692;2022-09-30T18:32:25;4.70;;;3.60;;
53751;SDS011;41095;53.090;6.692;2022-09-30T18:34:52;4.15;;;3.78;;